sensor_id;sensor_type;location;lat;lon;timestamp;pressure;altitude;pressure_sealevel;temperature;humidity
35224;BME280;21367;51.930;8.112;2023-01-28T00:03:25;102249.84;;;2.13;81.67
35224;BME280;21367;51.930;8.112;2023-01-28T00:08:31;102241.63;;;1.49;82.21
35224;BME280;21367;51.930;8.112;2023-01-28T00:13:36;102261.00;;;1.73;84.40
35224;BME280;21367;51.930;8.112;2023-01-28T00:18:40;102264.50;;;0.77;86.95
35224;BME280;21367;51.930;8.112;2023-01-28T00:29:22;102250.53;;;0.49;86.59
35224;BME280;21367;51.930;8.112;2023-01-28T00:34:26;102259.22;;;0.51;84.68
35224;BME280;21367;51.930;8.112;2023-01-28T00:39:31;102253.00;;;0.56;86.11
35224;BME280;21367;51.930;8.112;2023-01-28T00:44:38;102261.63;;;0.42;85.96
35224;BME280;21367;51.930;8.112;2023-01-28T00:49:41;102266.72;;;0.74;83.90
35224;BME280;21367;51.930;8.112;2023-01-28T00:54:45;102276.78;;;0.27;84.54
35224;BME280;21367;51.930;8.112;2023-01-28T00:59:52;102275.09;;;0.50;83.84
35224;BME280;21367;51.930;8.112;2023-01-28T01:04:56;102272.50;;;0.73;82.89
35224;BME280;21367;51.930;8.112;2023-01-28T01:10:04;102283.63;;;0.28;80.98
35224;BME280;21367;51.930;8.112;2023-01-28T01:15:11;102270.44;;;0.78;81.51
35224;BME280;21367;51.930;8.112;2023-01-28T01:20:18;102263.38;;;0.51;81.00
35224;BME280;21367;51.930;8.112;2023-01-28T01:25:22;102273.81;;;0.69;80.05
35224;BME280;21367;51.930;8.112;2023-01-28T01:30:29;102259.22;;;1.23;78.54
35224;BME280;21367;51.930;8.112;2023-01-28T01:35:32;102279.44;;;0.67;80.67
35224;BME280;21367;51.930;8.112;2023-01-28T01:40:36;102275.13;;;0.98;79.13
35224;BME280;21367;51.930;8.112;2023-01-28T01:45:43;102275.50;;;1.83;77.74
35224;BME280;21367;51.930;8.112;2023-01-28T01:50:53;102267.88;;;2.07;76.39
35224;BME280;21367;51.930;8.112;2023-01-28T01:56:01;102273.03;;;1.67;76.33
35224;BME280;21367;51.930;8.112;2023-01-28T02:01:10;102277.03;;;1.41;77.98
35224;BME280;21367;51.930;8.112;2023-01-28T02:06:15;102282.59;;;1.45;79.01
35224;BME280;21367;51.930;8.112;2023-01-28T02:11:19;102284.84;;;1.75;78.20
35224;BME280;21367;51.930;8.112;2023-01-28T02:16:26;102290.31;;;1.96;75.94
35224;BME280;21367;51.930;8.112;2023-01-28T02:27:15;102280.25;;;1.80;77.33
35224;BME280;21367;51.930;8.112;2023-01-28T02:32:29;102297.47;;;1.42;77.78
35224;BME280;21367;51.930;8.112;2023-01-28T02:37:45;102297.28;;;0.37;79.91
35224;BME280;21367;51.930;8.112;2023-01-28T02:42:52;102294.06;;;0.69;79.08
35224;BME280;21367;51.930;8.112;2023-01-28T02:47:58;102286.19;;;1.23;78.33
35224;BME280;21367;51.930;8.112;2023-01-28T02:53:12;102289.09;;;1.59;77.38
35224;BME280;21367;51.930;8.112;2023-01-28T02:58:35;102293.69;;;1.54;77.52
35224;BME280;21367;51.930;8.112;2023-01-28T03:03:52;102285.22;;;1.62;77.79
35224;BME280;21367;51.930;8.112;2023-01-28T03:09:01;102277.03;;;1.41;80.00
35224;BME280;21367;51.930;8.112;2023-01-28T03:14:19;102274.63;;;1.58;77.93
35224;BME280;21367;51.930;8.112;2023-01-28T03:19:39;102277.81;;;0.83;78.31
35224;BME280;21367;51.930;8.112;2023-01-28T03:24:55;102280.66;;;0.39;80.63
35224;BME280;21367;51.930;8.112;2023-01-28T03:30:17;102283.66;;;0.43;80.69
35224;BME280;21367;51.930;8.112;2023-01-28T03:35:44;102279.59;;;1.16;78.75
35224;BME280;21367;51.930;8.112;2023-01-28T03:41:03;102276.66;;;1.45;76.75
35224;BME280;21367;51.930;8.112;2023-01-28T03:46:07;102279.53;;;1.32;76.22
35224;BME280;21367;51.930;8.112;2023-01-28T03:51:14;102288.78;;;1.15;75.81
35224;BME280;21367;51.930;8.112;2023-01-28T03:56:18;102285.19;;;1.29;77.53
35224;BME280;21367;51.930;8.112;2023-01-28T04:01:24;102275.56;;;1.18;76.69
35224;BME280;21367;51.930;8.112;2023-01-28T04:06:31;102269.03;;;1.45;74.70
35224;BME280;21367;51.930;8.112;2023-01-28T04:12:13;102277.03;;;1.16;75.22
35224;BME280;21367;51.930;8.112;2023-01-28T04:17:23;102292.31;;;1.09;76.95
35224;BME280;21367;51.930;8.112;2023-01-28T04:22:30;102307.03;;;0.57;77.62
35224;BME280;21367;51.930;8.112;2023-01-28T04:27:34;102295.59;;;0.60;76.93
35224;BME280;21367;51.930;8.112;2023-01-28T04:32:48;102304.16;;;1.01;76.38
35224;BME280;21367;51.930;8.112;2023-01-28T04:38:15;102313.97;;;0.51;78.10
35224;BME280;21367;51.930;8.112;2023-01-28T04:43:42;102308.03;;;0.66;78.22
35224;BME280;21367;51.930;8.112;2023-01-28T04:49:12;102317.16;;;1.04;77.88
35224;BME280;21367;51.930;8.112;2023-01-28T04:54:39;102306.13;;;1.04;77.61
35224;BME280;21367;51.930;8.112;2023-01-28T04:59:43;102308.13;;;1.31;77.41
35224;BME280;21367;51.930;8.112;2023-01-28T05:04:47;102307.00;;;1.20;77.22
35224;BME280;21367;51.930;8.112;2023-01-28T05:10:17;102307.41;;;1.56;75.88
35224;BME280;21367;51.930;8.112;2023-01-28T05:15:22;102296.31;;;1.47;75.76
35224;BME280;21367;51.930;8.112;2023-01-28T05:20:27;102293.78;;;1.72;75.16
35224;BME280;21367;51.930;8.112;2023-01-28T05:25:34;102296.94;;;1.53;75.70
35224;BME280;21367;51.930;8.112;2023-01-28T05:30:39;102302.97;;;1.38;74.14
35224;BME280;21367;51.930;8.112;2023-01-28T05:35:43;102307.28;;;1.39;73.90
35224;BME280;21367;51.930;8.112;2023-01-28T05:40:49;102323.91;;;1.12;73.48
35224;BME280;21367;51.930;8.112;2023-01-28T05:45:53;102326.13;;;0.93;75.40
35224;BME280;21367;51.930;8.112;2023-01-28T05:51:05;102314.63;;;0.73;74.73
35224;BME280;21367;51.930;8.112;2023-01-28T05:56:14;102321.75;;;1.40;72.73
35224;BME280;21367;51.930;8.112;2023-01-28T06:01:18;102316.00;;;1.50;72.68
35224;BME280;21367;51.930;8.112;2023-01-28T06:06:27;102317.25;;;1.37;73.29
35224;BME280;21367;51.930;8.112;2023-01-28T06:11:34;102310.34;;;1.52;72.67
35224;BME280;21367;51.930;8.112;2023-01-28T06:16:39;102314.22;;;1.49;73.14
35224;BME280;21367;51.930;8.112;2023-01-28T06:22:02;102312.97;;;1.61;72.65
35224;BME280;21367;51.930;8.112;2023-01-28T06:27:09;102319.31;;;1.33;73.62
35224;BME280;21367;51.930;8.112;2023-01-28T06:32:13;102327.88;;;1.42;72.45
35224;BME280;21367;51.930;8.112;2023-01-28T06:37:17;102317.16;;;1.69;72.80
35224;BME280;21367;51.930;8.112;2023-01-28T06:42:25;102317.19;;;1.45;71.99
35224;BME280;21367;51.930;8.112;2023-01-28T06:47:30;102318.28;;;1.55;73.20
35224;BME280;21367;51.930;8.112;2023-01-28T06:52:34;102324.81;;;1.53;73.86
35224;BME280;21367;51.930;8.112;2023-01-28T06:57:40;102304.19;;;1.66;72.21
35224;BME280;21367;51.930;8.112;2023-01-28T07:02:45;102307.88;;;1.36;73.92
35224;BME280;21367;51.930;8.112;2023-01-28T07:07:49;102316.59;;;1.31;73.95
35224;BME280;21367;51.930;8.112;2023-01-28T07:12:55;102328.97;;;1.53;73.29
35224;BME280;21367;51.930;8.112;2023-01-28T07:18:00;102330.19;;;1.56;73.15
35224;BME280;21367;51.930;8.112;2023-01-28T07:23:04;102329.16;;;1.54;73.34
35224;BME280;21367;51.930;8.112;2023-01-28T07:28:10;102330.72;;;1.45;74.09
35224;BME280;21367;51.930;8.112;2023-01-28T07:33:20;102334.63;;;1.50;74.13
35224;BME280;21367;51.930;8.112;2023-01-28T07:38:25;102341.47;;;1.27;72.97
35224;BME280;21367;51.930;8.112;2023-01-28T07:43:31;102333.28;;;1.45;72.24
35224;BME280;21367;51.930;8.112;2023-01-28T07:48:35;102333.13;;;1.28;72.81
35224;BME280;21367;51.930;8.112;2023-01-28T07:53:42;102325.50;;;1.68;72.13
35224;BME280;21367;51.930;8.112;2023-01-28T07:58:51;102331.13;;;1.57;72.52
35224;BME280;21367;51.930;8.112;2023-01-28T08:03:54;102347.09;;;1.65;70.35
35224;BME280;21367;51.930;8.112;2023-01-28T08:08:59;102351.03;;;1.70;70.91
35224;BME280;21367;51.930;8.112;2023-01-28T08:14:09;102358.72;;;1.62;70.68
35224;BME280;21367;51.930;8.112;2023-01-28T08:19:13;102378.31;;;1.48;71.48
35224;BME280;21367;51.930;8.112;2023-01-28T08:24:17;102385.19;;;1.17;71.98
35224;BME280;21367;51.930;8.112;2023-01-28T08:29:24;102388.00;;;1.52;71.20
35224;BME280;21367;51.930;8.112;2023-01-28T08:34:28;102387.88;;;1.75;71.16
35224;BME280;21367;51.930;8.112;2023-01-28T08:39:32;102403.25;;;1.76;70.53
35224;BME280;21367;51.930;8.112;2023-01-28T08:44:39;102413.34;;;1.92;68.82
35224;BME280;21367;51.930;8.112;2023-01-28T08:49:43;102409.84;;;1.83;68.97
35224;BME280;21367;51.930;8.112;2023-01-28T08:54:47;102423.56;;;1.60;68.91
35224;BME280;21367;51.930;8.112;2023-01-28T08:59:53;102435.06;;;1.50;69.87
35224;BME280;21367;51.930;8.112;2023-01-28T09:04:58;102432.19;;;2.03;68.17
35224;BME280;21367;51.930;8.112;2023-01-28T09:10:04;102443.22;;;1.79;69.72
35224;BME280;21367;51.930;8.112;2023-01-28T09:15:11;102452.72;;;1.73;70.39
35224;BME280;21367;51.930;8.112;2023-01-28T09:20:16;102460.63;;;2.16;68.13
35224;BME280;21367;51.930;8.112;2023-01-28T09:25:20;102458.31;;;2.02;69.39
35224;BME280;21367;51.930;8.112;2023-01-28T09:30:27;102468.66;;;2.12;69.45
35224;BME280;21367;51.930;8.112;2023-01-28T09:35:32;102450.19;;;1.97;70.96
35224;BME280;21367;51.930;8.112;2023-01-28T09:40:40;102462.09;;;1.90;70.42
35224;BME280;21367;51.930;8.112;2023-01-28T09:45:49;102457.84;;;1.81;69.58
35224;BME280;21367;51.930;8.112;2023-01-28T09:50:53;102472.84;;;2.12;69.55
35224;BME280;21367;51.930;8.112;2023-01-28T09:56:01;102467.66;;;2.19;69.94
35224;BME280;21367;51.930;8.112;2023-01-28T10:01:23;102482.94;;;0.69;73.69
35224;BME280;21367;51.930;8.112;2023-01-28T10:06:42;102465.56;;;1.58;72.93
35224;BME280;21367;51.930;8.112;2023-01-28T10:11:59;102464.16;;;2.09;70.43
35224;BME280;21367;51.930;8.112;2023-01-28T10:17:12;102456.22;;;2.55;67.25
35224;BME280;21367;51.930;8.112;2023-01-28T10:22:22;102455.13;;;2.78;67.17
35224;BME280;21367;51.930;8.112;2023-01-28T10:27:29;102456.25;;;2.31;69.39
35224;BME280;21367;51.930;8.112;2023-01-28T10:32:42;102455.47;;;1.83;72.47
35224;BME280;21367;51.930;8.112;2023-01-28T10:37:48;102450.78;;;2.77;67.77
35224;BME280;21367;51.930;8.112;2023-01-28T10:42:53;102460.38;;;1.81;68.48
35224;BME280;21367;51.930;8.112;2023-01-28T10:48:02;102473.53;;;2.51;67.54
35224;BME280;21367;51.930;8.112;2023-01-28T10:53:09;102472.59;;;1.61;69.43
35224;BME280;21367;51.930;8.112;2023-01-28T10:58:17;102476.88;;;1.94;69.35
35224;BME280;21367;51.930;8.112;2023-01-28T11:03:26;102483.03;;;1.80;70.24
35224;BME280;21367;51.930;8.112;2023-01-28T11:08:51;102488.75;;;0.84;72.17
35224;BME280;21367;51.930;8.112;2023-01-28T11:13:56;102474.63;;;2.13;69.62
35224;BME280;21367;51.930;8.112;2023-01-28T11:19:05;102467.75;;;2.61;67.83
35224;BME280;21367;51.930;8.112;2023-01-28T11:24:14;102451.34;;;2.08;67.65
35224;BME280;21367;51.930;8.112;2023-01-28T11:29:22;102456.97;;;2.05;67.42
35224;BME280;21367;51.930;8.112;2023-01-28T11:34:33;102456.28;;;1.91;68.27
35224;BME280;21367;51.930;8.112;2023-01-28T11:39:37;102461.31;;;1.66;68.53
35224;BME280;21367;51.930;8.112;2023-01-28T11:44:41;102456.69;;;1.87;67.76
35224;BME280;21367;51.930;8.112;2023-01-28T11:50:07;102434.78;;;2.12;67.86
35224;BME280;21367;51.930;8.112;2023-01-28T11:55:22;102433.97;;;2.53;65.36
35224;BME280;21367;51.930;8.112;2023-01-28T12:00:37;102417.34;;;2.81;64.90
35224;BME280;21367;51.930;8.112;2023-01-28T12:05:50;102412.06;;;3.21;63.85
35224;BME280;21367;51.930;8.112;2023-01-28T12:11:16;102411.19;;;3.30;63.44
35224;BME280;21367;51.930;8.112;2023-01-28T12:16:52;102404.81;;;2.83;65.40
35224;BME280;21367;51.930;8.112;2023-01-28T12:27:42;102343.91;;;3.00;64.00
35224;BME280;21367;51.930;8.112;2023-01-28T12:33:02;102332.66;;;2.81;64.91
35224;BME280;21367;51.930;8.112;2023-01-28T12:38:20;102319.19;;;3.68;64.49
35224;BME280;21367;51.930;8.112;2023-01-28T12:43:42;102306.53;;;4.05;67.35
35224;BME280;21367;51.930;8.112;2023-01-28T12:48:52;102302.47;;;3.62;64.13
35224;BME280;21367;51.930;8.112;2023-01-28T12:54:10;102323.91;;;3.91;63.18
35224;BME280;21367;51.930;8.112;2023-01-28T12:59:22;102337.16;;;3.70;63.30
35224;BME280;21367;51.930;8.112;2023-01-28T13:05:03;102315.47;;;3.65;63.98
35224;BME280;21367;51.930;8.112;2023-01-28T13:10:39;102304.63;;;3.05;64.75
35224;BME280;21367;51.930;8.112;2023-01-28T13:15:44;102317.34;;;3.93;64.90
35224;BME280;21367;51.930;8.112;2023-01-28T13:20:50;102327.78;;;3.08;65.18
35224;BME280;21367;51.930;8.112;2023-01-28T13:26:08;102343.16;;;3.53;64.17
35224;BME280;21367;51.930;8.112;2023-01-28T13:31:16;102359.88;;;4.58;62.27
35224;BME280;21367;51.930;8.112;2023-01-28T13:36:25;102356.91;;;4.81;60.84
35224;BME280;21367;51.930;8.112;2023-01-28T13:41:42;102358.69;;;5.01;59.64
35224;BME280;21367;51.930;8.112;2023-01-28T13:46:47;102367.81;;;4.89;59.75
35224;BME280;21367;51.930;8.112;2023-01-28T13:51:57;102366.13;;;5.17;61.93
35224;BME280;21367;51.930;8.112;2023-01-28T13:57:30;102360.91;;;4.88;58.91
35224;BME280;21367;51.930;8.112;2023-01-28T14:14:52;102295.69;;;5.28;58.58
35224;BME280;21367;51.930;8.112;2023-01-28T14:20:02;102281.22;;;5.37;58.62
35224;BME280;21367;51.930;8.112;2023-01-28T14:25:11;102262.81;;;5.02;58.91
35224;BME280;21367;51.930;8.112;2023-01-28T14:30:24;102283.41;;;5.43;57.80
35224;BME280;21367;51.930;8.112;2023-01-28T14:35:34;102297.19;;;5.74;56.85
35224;BME280;21367;51.930;8.112;2023-01-28T14:40:41;102312.63;;;5.75;56.04
35224;BME280;21367;51.930;8.112;2023-01-28T14:46:00;102328.84;;;5.09;59.20
35224;BME280;21367;51.930;8.112;2023-01-28T14:51:32;102330.13;;;5.81;56.66
35224;BME280;21367;51.930;8.112;2023-01-28T14:56:53;102332.94;;;6.13;55.45
35224;BME280;21367;51.930;8.112;2023-01-28T15:02:16;102348.31;;;4.90;58.82
35224;BME280;21367;51.930;8.112;2023-01-28T15:07:22;102337.06;;;4.05;61.64
35224;BME280;21367;51.930;8.112;2023-01-28T15:12:26;102347.81;;;3.48;62.94
35224;BME280;21367;51.930;8.112;2023-01-28T15:17:33;102339.13;;;3.38;63.63
35224;BME280;21367;51.930;8.112;2023-01-28T15:22:41;102345.25;;;3.31;64.16
35224;BME280;21367;51.930;8.112;2023-01-28T15:27:45;102343.16;;;2.92;66.16
35224;BME280;21367;51.930;8.112;2023-01-28T15:33:02;102363.69;;;2.61;66.75
35224;BME280;21367;51.930;8.112;2023-01-28T15:38:07;102363.75;;;2.87;66.47
35224;BME280;21367;51.930;8.112;2023-01-28T15:43:17;102355.38;;;2.88;65.99
35224;BME280;21367;51.930;8.112;2023-01-28T15:48:27;102360.91;;;2.84;66.47
35224;BME280;21367;51.930;8.112;2023-01-28T15:53:34;102376.22;;;2.59;67.60
35224;BME280;21367;51.930;8.112;2023-01-28T15:58:40;102393.03;;;2.50;67.71
35224;BME280;21367;51.930;8.112;2023-01-28T16:04:00;102399.75;;;2.49;67.90
35224;BME280;21367;51.930;8.112;2023-01-28T16:09:06;102408.47;;;2.27;69.53
35224;BME280;21367;51.930;8.112;2023-01-28T16:14:22;102404.56;;;1.97;70.35
35224;BME280;21367;51.930;8.112;2023-01-28T16:19:42;102407.72;;;2.03;69.95
35224;BME280;21367;51.930;8.112;2023-01-28T16:24:49;102413.13;;;1.82;71.53
35224;BME280;21367;51.930;8.112;2023-01-28T16:29:54;102426.53;;;1.81;71.51
35224;BME280;21367;51.930;8.112;2023-01-28T16:35:02;102403.41;;;1.78;72.22
35224;BME280;21367;51.930;8.112;2023-01-28T16:40:08;102400.50;;;1.66;72.06
35224;BME280;21367;51.930;8.112;2023-01-28T16:45:16;102385.91;;;1.72;71.99
35224;BME280;21367;51.930;8.112;2023-01-28T16:50:22;102376.22;;;1.52;72.87
35224;BME280;21367;51.930;8.112;2023-01-28T16:55:26;102361.97;;;1.05;73.04
35224;BME280;21367;51.930;8.112;2023-01-28T17:00:30;102370.66;;;1.07;73.13
35224;BME280;21367;51.930;8.112;2023-01-28T17:05:40;102376.94;;;1.11;73.70
35224;BME280;21367;51.930;8.112;2023-01-28T17:10:44;102370.69;;;1.00;73.58
35224;BME280;21367;51.930;8.112;2023-01-28T17:15:47;102382.00;;;1.11;73.77
35224;BME280;21367;51.930;8.112;2023-01-28T17:20:59;102391.38;;;1.12;73.01
35224;BME280;21367;51.930;8.112;2023-01-28T17:26:05;102407.28;;;0.79;74.16
35224;BME280;21367;51.930;8.112;2023-01-28T17:31:12;102410.84;;;0.81;74.14
35224;BME280;21367;51.930;8.112;2023-01-28T17:36:21;102414.72;;;0.55;75.01
35224;BME280;21367;51.930;8.112;2023-01-28T17:41:26;102410.13;;;0.66;75.05
35224;BME280;21367;51.930;8.112;2023-01-28T17:46:30;102401.91;;;0.53;75.63
35224;BME280;21367;51.930;8.112;2023-01-28T17:51:37;102400.66;;;0.50;75.69
35224;BME280;21367;51.930;8.112;2023-01-28T17:56:41;102403.03;;;0.48;75.85
35224;BME280;21367;51.930;8.112;2023-01-28T18:01:45;102422.72;;;0.51;76.07
35224;BME280;21367;51.930;8.112;2023-01-28T18:06:52;102415.06;;;0.58;76.44
35224;BME280;21367;51.930;8.112;2023-01-28T18:11:56;102427.25;;;0.46;76.73
35224;BME280;21367;51.930;8.112;2023-01-28T18:17:00;102431.97;;;0.43;77.08
35224;BME280;21367;51.930;8.112;2023-01-28T18:22:10;102434.03;;;0.31;77.49
35224;BME280;21367;51.930;8.112;2023-01-28T18:27:14;102427.41;;;0.25;77.18
35224;BME280;21367;51.930;8.112;2023-01-28T18:32:18;102443.94;;;0.37;76.96
35224;BME280;21367;51.930;8.112;2023-01-28T18:37:26;102450.97;;;0.16;78.03
35224;BME280;21367;51.930;8.112;2023-01-28T18:42:31;102455.06;;;0.23;77.93
35224;BME280;21367;51.930;8.112;2023-01-28T18:47:37;102465.78;;;0.13;78.81
35224;BME280;21367;51.930;8.112;2023-01-28T18:52:44;102465.31;;;0.02;79.23
35224;BME280;21367;51.930;8.112;2023-01-28T18:57:49;102455.44;;;-0.11;79.96
35224;BME280;21367;51.930;8.112;2023-01-28T19:02:53;102455.25;;;-0.13;79.57
35224;BME280;21367;51.930;8.112;2023-01-28T19:08:00;102454.44;;;0.10;79.28
35224;BME280;21367;51.930;8.112;2023-01-28T19:13:04;102462.53;;;0.14;78.48
35224;BME280;21367;51.930;8.112;2023-01-28T19:18:08;102471.81;;;0.30;78.40
35224;BME280;21367;51.930;8.112;2023-01-28T19:23:15;102479.47;;;0.15;79.33
35224;BME280;21367;51.930;8.112;2023-01-28T19:28:19;102486.34;;;0.16;79.48
35224;BME280;21367;51.930;8.112;2023-01-28T19:33:23;102494.88;;;0.10;79.53
35224;BME280;21367;51.930;8.112;2023-01-28T19:38:29;102484.88;;;0.18;79.50
35224;BME280;21367;51.930;8.112;2023-01-28T19:43:34;102489.13;;;0.04;79.71
35224;BME280;21367;51.930;8.112;2023-01-28T19:48:38;102480.03;;;-0.17;81.11
35224;BME280;21367;51.930;8.112;2023-01-28T19:53:48;102483.09;;;-0.20;80.95
35224;BME280;21367;51.930;8.112;2023-01-28T19:58:53;102476.72;;;-0.47;81.77
35224;BME280;21367;51.930;8.112;2023-01-28T20:03:58;102465.50;;;-0.41;81.25
35224;BME280;21367;51.930;8.112;2023-01-28T20:09:11;102459.59;;;-0.49;81.26
35224;BME280;21367;51.930;8.112;2023-01-28T20:14:16;102450.09;;;-0.21;80.83
35224;BME280;21367;51.930;8.112;2023-01-28T20:19:21;102440.03;;;-0.36;79.97
35224;BME280;21367;51.930;8.112;2023-01-28T20:24:27;102436.50;;;-0.52;81.24
35224;BME280;21367;51.930;8.112;2023-01-28T20:29:32;102438.31;;;-0.51;81.50
35224;BME280;21367;51.930;8.112;2023-01-28T20:34:36;102426.56;;;-0.43;84.24
35224;BME280;21367;51.930;8.112;2023-01-28T20:39:43;102422.72;;;-0.33;80.84
35224;BME280;21367;51.930;8.112;2023-01-28T20:44:47;102416.56;;;-0.28;80.37
35224;BME280;21367;51.930;8.112;2023-01-28T20:49:51;102409.75;;;-0.36;80.95
35224;BME280;21367;51.930;8.112;2023-01-28T20:54:58;102417.50;;;-0.41;80.87
35224;BME280;21367;51.930;8.112;2023-01-28T21:00:03;102420.38;;;-0.38;80.92
35224;BME280;21367;51.930;8.112;2023-01-28T21:05:07;102416.22;;;-0.38;80.33
35224;BME280;21367;51.930;8.112;2023-01-28T21:10:13;102416.63;;;-0.42;80.13
35224;BME280;21367;51.930;8.112;2023-01-28T21:15:17;102424.75;;;-0.44;80.35
35224;BME280;21367;51.930;8.112;2023-01-28T21:20:21;102428.78;;;-0.61;81.15
35224;BME280;21367;51.930;8.112;2023-01-28T21:25:31;102431.31;;;-0.61;81.57
35224;BME280;21367;51.930;8.112;2023-01-28T21:30:35;102425.25;;;-0.77;81.79
35224;BME280;21367;51.930;8.112;2023-01-28T21:35:41;102429.88;;;-0.66;81.79
35224;BME280;21367;51.930;8.112;2023-01-28T21:40:48;102430.06;;;-0.64;81.43
35224;BME280;21367;51.930;8.112;2023-01-28T21:45:54;102440.91;;;-0.65;82.04
35224;BME280;21367;51.930;8.112;2023-01-28T21:51:06;102434.84;;;-0.37;81.13
35224;BME280;21367;51.930;8.112;2023-01-28T21:56:25;102436.88;;;-0.49;81.70
35224;BME280;21367;51.930;8.112;2023-01-28T22:01:29;102433.22;;;-0.37;81.82
35224;BME280;21367;51.930;8.112;2023-01-28T22:06:33;102427.22;;;-0.30;81.56
35224;BME280;21367;51.930;8.112;2023-01-28T22:11:42;102436.34;;;-0.16;80.81
35224;BME280;21367;51.930;8.112;2023-01-28T22:16:47;102425.88;;;-0.57;81.06
35224;BME280;21367;51.930;8.112;2023-01-28T22:21:51;102424.03;;;-0.51;81.71
35224;BME280;21367;51.930;8.112;2023-01-28T22:26:58;102421.16;;;-0.54;81.81
35224;BME280;21367;51.930;8.112;2023-01-28T22:32:02;102424.16;;;-0.72;82.49
35224;BME280;21367;51.930;8.112;2023-01-28T22:37:06;102421.88;;;-0.48;81.72
35224;BME280;21367;51.930;8.112;2023-01-28T22:42:14;102423.53;;;-0.55;82.12
35224;BME280;21367;51.930;8.112;2023-01-28T22:47:21;102422.41;;;-0.43;81.11
35224;BME280;21367;51.930;8.112;2023-01-28T22:52:26;102415.53;;;-0.37;81.52
35224;BME280;21367;51.930;8.112;2023-01-28T22:57:33;102415.31;;;-0.68;83.02
35224;BME280;21367;51.930;8.112;2023-01-28T23:02:37;102407.00;;;-0.30;82.08
35224;BME280;21367;51.930;8.112;2023-01-28T23:07:41;102398.88;;;-0.65;83.20
35224;BME280;21367;51.930;8.112;2023-01-28T23:12:48;102406.16;;;-0.89;84.70
35224;BME280;21367;51.930;8.112;2023-01-28T23:17:55;102408.38;;;-1.14;84.25
35224;BME280;21367;51.930;8.112;2023-01-28T23:23:12;102397.16;;;-0.95;86.02
35224;BME280;21367;51.930;8.112;2023-01-28T23:28:32;102395.06;;;-1.20;86.99
35224;BME280;21367;51.930;8.112;2023-01-28T23:33:36;102387.00;;;-0.73;85.54
35224;BME280;21367;51.930;8.112;2023-01-28T23:38:40;102390.97;;;-0.82;85.08
35224;BME280;21367;51.930;8.112;2023-01-28T23:43:47;102386.41;;;-0.56;84.28
35224;BME280;21367;51.930;8.112;2023-01-28T23:48:50;102389.19;;;-0.39;83.38
35224;BME280;21367;51.930;8.112;2023-01-28T23:53:54;102373.19;;;-0.54;83.96
35224;BME280;21367;51.930;8.112;2023-01-28T23:59:01;102364.75;;;-1.06;85.36
